Shanksville, PA (15560)

9:11 PM EDT on August 30, 2015 (GMT -0400)
Indian Lake | | Change Station
CLOSE
Current Station
Personal Weather Station
Location: Central City, PA
Elevation: 2297 ft
Nearby Weather Stations

Elev 2297 ft 40.05 °N, 78.87 °W | Updated 5 seconds ago

Overcast
Overcast
70.3 °F
Feels Like 72 °F
N
0.0
Wind Variable Wind from West
Gusts 0.0 mph

Today
High -- | Low -- °F
--% Chance of Precip.
Yesterday
High -- | Low -- °F
Precip. -- in
6:41 AM 7:50 PM
Full, 98% visible
Pressure 30.12 in
Visibility 10.0 miles
Clouds Scattered Clouds 8500 ft
Mostly Cloudy 12000 ft
Heat Index 72 °F
Dew Point 63 °F
Humidity 77%
Rainfall 0.00 in
Snow Depth Not available.
UV 0.0 out of 12
Pollen 9.70 out of 12
Air Quality Not available.
Flu Activity Not available.
METAR KJST 310054Z AUTO 25006KT 10SM SCT085 BKN120 22/16 A3015 RMK AO2 SLP197 T02220156
Pressure 30.12 in
Visibility 10.0 miles
Clouds Scattered Clouds 8500 ft
Mostly Cloudy 12000 ft
Heat Index 72 °F
Dew Point 63 °F
Humidity 77%
Rainfall 0.00 in
Snow Depth Not available.
UV 0.0 out of 12
Pollen 9.70 out of 12
Air Quality Not available.
Flu Activity Not available.
METAR KJST 310054Z AUTO 25006KT 10SM SCT085 BKN120 22/16 A3015 RMK AO2 SLP197 T02220156

10-Day Weather Forecast

×

Almanac

Astronomy

Aug. 30, 2015 Rise Set
Actual Time
Civil Twilight
Nautical Twilight
Astronomical Twilight
Moon
Length of Visible Light
Length of Day
Tomorrow will be .
, % of the Moon is Illuminated

Today's Extremes

State Highs State Lows

Community

WunderPhotos

Upload Photos

1,851,131 photos uploaded!

WunderBlogs® & News

Nearby

Air Quality

  Air Quality AQ Index Pollutant
Not available.

Snow Depth

Station Depth Elevation

Earthquake Activity

City Distance Mag. Time & Date
Minimum magnitude displayed is 2.5.

Coastal Water Temperatures

Place Temperature

Stations

Nearby Weather Stations

Station Location Temp. Windchill Dew Point Humidity Wind Precip. Elev Updated Type